Time;durP1;ratioP1;P1;durP2;ratioP2;P2;SDS_P1;SDS_P2;PMS_P1;PMS_P2;Temp;Humidity;BMP_temperature;BMP_pressure;BME280_temperature;BME280_humidity;BME280_pressure;Samples;Min_cycle;Max_cycle;Signal;HPM_P1;HPM_P2
2022/01/26 00:11:53;;;;;;;47.47;21.67;;;;;;;3.63;90.21;101422.88;5049625;28;20697;-77
2022/01/26 00:15:20;;;;;;;49.10;21.65;;;;;;;3.62;89.90;101422.00;5031256;28;20044;-76
2022/01/26 00:18:23;;;;;;;47.13;21.30;;;;;;;3.58;89.75;101422.19;5018042;28;20029;-77
2022/01/26 00:28:35;;;;;;;50.42;21.83;;;;;;;3.66;90.54;101401.59;5070836;28;20029;-77
2022/01/26 00:41:02;;;;;;;49.20;20.20;;;;;;;3.66;90.48;101423.63;5028965;28;20078;-77
2022/01/26 00:43:41;;;;;;;53.50;21.73;;;;;;;3.63;90.73;101429.03;5037790;28;20940;-76
2022/01/26 00:46:48;;;;;;;51.00;21.15;;;;;;;3.55;90.52;101423.16;5037623;28;20046;-77
2022/01/26 00:49:34;;;;;;;45.20;18.20;;;;;;;3.52;90.86;101425.91;5030837;28;20680;-76
2022/01/26 00:52:13;;;;;;;44.90;18.50;;;;;;;3.52;90.62;101420.63;5054795;28;20058;-77
2022/01/26 00:58:31;;;;;;;43.85;18.80;;;;;;;3.60;90.82;101418.56;5032336;28;20069;-77
2022/01/26 01:01:24;;;;;;;48.00;19.30;;;;;;;3.65;91.11;101410.44;5088649;28;20919;-77
2022/01/26 01:04:06;;;;;;;43.53;19.15;;;;;;;3.73;90.83;101411.88;5088680;28;20028;-76
2022/01/26 01:07:11;;;;;;;;;;;;;;;;;;;;;
2022/01/26 01:10:00;;;;;;;37.25;17.55;;;;;;;3.70;90.81;101416.41;5093948;28;20088;-78
2022/01/26 01:12:53;;;;;;;;;;;;;;;;;;;;;
2022/01/26 01:15:50;;;;;;;41.83;17.25;;;;;;;3.67;90.18;101420.03;5077508;28;20119;-76
2022/01/26 01:18:55;;;;;;;40.25;17.70;;;;;;;3.65;90.69;101426.31;5075723;28;20040;-77
2022/01/26 01:31:08;;;;;;;;;;;;;;;;;;;;;
2022/01/26 01:34:01;;;;;;;40.85;18.90;;;;;;;3.61;91.11;101425.56;5036633;28;20096;-77
2022/01/26 01:36:52;;;;;;;41.75;17.77;;;;;;;3.61;91.19;101424.72;5080368;28;20047;-76
2022/01/26 01:39:29;;;;;;;47.75;19.40;;;;;;;3.59;91.06;101432.69;5059834;28;20067;-76
2022/01/26 01:42:06;;;;;;;45.47;19.65;;;;;;;3.55;91.05;101430.22;5061951;28;20586;-77
2022/01/26 01:44:55;;;;;;;43.85;18.52;;;;;;;3.54;91.10;101436.44;5058240;28;20044;-77
2022/01/26 01:47:42;;;;;;;;;;;;;;;;;;;;;
2022/01/26 01:50:37;;;;;;;45.75;20.17;;;;;;;3.44;91.30;101433.28;5060884;28;20119;-77
2022/01/26 01:53:34;;;;;;;40.97;18.40;;;;;;;3.46;90.97;101434.94;5054308;28;20080;-76
2022/01/26 01:56:27;;;;;;;;;;;;;;;;;;;;;
2022/01/26 01:59:03;;;;;;;39.53;18.08;;;;;;;3.45;90.61;101422.63;5041183;28;20123;-76
2022/01/26 02:01:57;;;;;;;36.67;16.52;;;;;;;3.51;91.17;101420.69;5039054;28;20066;-77
2022/01/26 02:04:45;;;;;;;38.00;18.02;;;;;;;3.51;91.11;101418.03;5056092;28;20075;-76
2022/01/26 02:07:24;;;;;;;35.67;16.33;;;;;;;3.55;90.86;101415.22;5033982;28;20083;-76
2022/01/26 02:10:27;;;;;;;38.67;17.70;;;;;;;3.59;90.77;101415.97;5049817;28;20033;-77
2022/01/26 02:13:13;;;;;;;38.25;17.65;;;;;;;3.61;90.62;101409.69;5055704;28;20062;-77
2022/01/26 02:16:17;;;;;;;37.90;18.05;;;;;;;3.62;90.52;101407.91;5023964;28;20044;-76
2022/01/26 02:49:21;;;;;;;39.83;18.25;;;;;;;3.65;90.25;101405.16;5074054;28;20039;-77
2022/01/26 02:56:07;;;;;;;44.17;18.73;;;;;;;3.54;90.30;101383.53;4987608;28;20042;-76
2022/01/26 03:05:15;;;;;;;42.17;18.55;;;;;;;3.27;89.21;101382.78;5042641;28;20036;-77
2022/01/26 03:07:56;;;;;;;45.33;19.92;;;;;;;3.31;89.23;101377.34;5037385;28;20044;-76
2022/01/26 03:10:55;;;;;;;39.10;18.65;;;;;;;3.33;88.99;101380.78;5040153;28;20100;-77
2022/01/26 03:13:34;;;;;;;40.90;19.35;;;;;;;3.30;88.91;101380.88;5050634;28;20032;-77
2022/01/26 03:16:47;;;;;;;44.00;20.50;;;;;;;3.23;88.97;101379.38;5054862;28;20883;-76
2022/01/26 03:28:09;;;;;;;49.88;21.20;;;;;;;3.23;88.82;101379.38;5054922;28;20882;-76
2022/01/26 03:38:41;;;;;;;42.20;18.85;;;;;;;3.46;88.56;101352.97;5024888;28;20638;-77
2022/01/26 03:44:08;;;;;;;44.88;19.95;;;;;;;3.52;88.34;101354.53;5024659;28;20104;-75
2022/01/26 03:46:56;;;;;;;48.35;20.55;;;;;;;3.54;88.24;101357.97;5021503;28;20442;-76
2022/01/26 03:49:56;;;;;;;46.83;20.33;;;;;;;3.58;88.29;101356.06;5037391;28;20059;-76
2022/01/26 03:52:52;;;;;;;49.63;21.73;;;;;;;3.50;88.25;101337.84;5043478;28;20036;-76
2022/01/26 03:55:28;;;;;;;45.20;20.45;;;;;;;3.46;88.08;101333.59;4993114;28;20046;-77
2022/01/26 03:58:11;;;;;;;49.28;20.95;;;;;;;3.47;88.34;101349.41;5052435;28;20086;-76
2022/01/26 04:00:44;;;;;;;46.90;20.88;;;;;;;3.50;88.41;101337.84;5051202;28;20115;-76
2022/01/26 04:03:19;;;;;;;49.33;21.15;;;;;;;3.51;88.17;101344.00;5052607;28;20051;-77
2022/01/26 04:06:11;;;;;;;49.28;21.67;;;;;;;3.53;88.26;101343.03;5051342;28;20045;-76
2022/01/26 04:08:58;;;;;;;45.08;21.77;;;;;;;3.53;88.06;101348.31;5060696;28;20160;-77
2022/01/26 04:11:49;;;;;;;51.80;23.05;;;;;;;3.65;88.15;101341.69;5053930;28;20044;-77
2022/01/26 04:14:30;;;;;;;53.30;23.23;;;;;;;3.59;87.69;101340.13;5038407;28;20114;-77
2022/01/26 04:17:22;;;;;;;53.20;22.67;;;;;;;3.62;87.99;101337.38;5012122;28;20075;-77
2022/01/26 04:20:11;;;;;;;52.42;22.70;;;;;;;3.57;87.67;101328.75;5021659;28;20041;-77
2022/01/26 04:22:57;;;;;;;;;;;;;;;3.56;87.59;101345.53;5006663;28;20980;-77
2022/01/26 04:25:54;;;;;;;52.65;22.50;;;;;;;3.53;87.28;101350.94;5013000;28;19924;-77
2022/01/26 04:28:49;;;;;;;51.53;22.92;;;;;;;3.48;87.64;101356.41;5020948;28;20045;-77
2022/01/26 04:31:40;;;;;;;52.97;23.52;;;;;;;3.43;87.88;101354.88;5029144;28;20048;-76
2022/01/26 04:38:04;;;;;;;;;;;;;;;;;;;;;
2022/01/26 04:41:00;;;;;;;49.20;21.25;;;;;;;3.52;87.63;101340.44;5034139;28;20064;-76
2022/01/26 04:44:15;;;;;;;44.88;20.05;;;;;;;3.50;87.46;101358.16;5008393;28;20041;-76
2022/01/26 04:46:49;;;;;;;45.45;20.40;;;;;;;3.39;87.17;101363.84;5017209;28;20105;-77
2022/01/26 04:49:38;;;;;;;50.17;22.15;;;;;;;3.37;87.36;101353.31;5024359;28;20048;-77
2022/01/26 04:52:11;;;;;;;;;;;;;;;3.33;87.20;101356.16;5024413;28;20065;-77
2022/01/26 04:54:50;;;;;;;49.13;19.80;;;;;;;3.20;86.97;101360.13;5050918;28;19920;-77
2022/01/26 04:57:55;;;;;;;47.03;18.98;;;;;;;3.13;87.33;101360.38;5058486;28;20039;-76
2022/01/26 05:00:45;;;;;;;49.53;20.60;;;;;;;3.25;87.31;101358.19;5075937;28;20074;-76
2022/01/26 05:03:31;;;;;;;44.72;19.60;;;;;;;3.30;87.41;101370.31;5060410;28;21038;-77
2022/01/26 05:06:50;;;;;;;49.42;21.67;;;;;;;3.28;87.32;101388.00;5075779;28;20051;-77
2022/01/26 05:10:02;;;;;;;;;;;;;;;;;;;;;
2022/01/26 05:12:48;;;;;;;53.25;23.25;;;;;;;3.24;87.27;101404.03;5078173;28;20107;-77
2022/01/26 05:16:05;;;;;;;56.22;23.75;;;;;;;3.20;87.08;101399.78;5076394;28;20035;-76
2022/01/26 05:19:04;;;;;;;53.03;24.20;;;;;;;3.09;86.68;101405.44;5058239;28;20831;-76
2022/01/26 05:21:42;;;;;;;;;;;;;;;3.01;86.87;101412.78;5073945;28;20057;-77
2022/01/26 05:24:16;;;;;;;49.92;20.88;;;;;;;3.05;87.06;101424.97;5020543;28;20397;-76
2022/01/26 05:27:27;;;;;;;;;;;;;;;;;;;;;
2022/01/26 05:30:15;;;;;;;51.35;22.13;;;;;;;3.09;87.19;101423.94;5027412;28;20131;-77
2022/01/26 05:33:07;;;;;;;53.78;22.98;;;;;;;3.14;87.32;101432.56;5007009;28;20047;-76
2022/01/26 05:36:03;;;;;;;60.00;23.30;;;;;;;3.26;87.23;101444.50;5014399;28;20125;-77
2022/01/26 05:39:22;;;;;;;64.13;25.05;;;;;;;3.33;86.83;101433.66;5010418;28;20061;-77
2022/01/26 05:42:07;;;;;;;58.70;26.00;;;;;;;3.39;86.59;101429.94;5021947;28;20145;-76
2022/01/26 05:45:03;;;;;;;;;;;;;;;;;;;;;
2022/01/26 05:48:02;;;;;;;55.97;26.40;;;;;;;3.43;86.22;101420.97;5026901;28;20112;-77
2022/01/26 05:50:55;;;;;;;66.28;25.80;;;;;;;3.41;86.17;101420.16;5062067;28;20031;-77
2022/01/26 05:53:35;;;;;;;60.45;25.52;;;;;;;3.37;86.24;101430.00;5060258;28;20043;-77
2022/01/26 05:56:42;;;;;;;63.35;25.77;;;;;;;3.40;86.18;101416.66;5058992;28;20064;-78
2022/01/26 06:02:23;;;;;;;70.30;27.83;;;;;;;3.39;85.60;101369.13;5026776;28;20041;-77
2022/01/26 06:05:13;;;;;;;60.35;26.45;;;;;;;3.44;85.82;101396.25;5054736;28;20032;-76
2022/01/26 06:07:57;;;;;;;60.78;25.17;;;;;;;3.52;85.54;101396.81;5073968;28;20048;-77
2022/01/26 06:10:34;;;;;;;67.70;28.02;;;;;;;3.43;85.34;101400.69;5066932;28;20964;-76
2022/01/26 06:14:18;;;;;;;66.50;27.10;;;;;;;3.43;85.56;101394.53;5057849;28;20040;-77
2022/01/26 06:16:58;;;;;;;68.47;26.60;;;;;;;3.51;85.48;101397.75;5061772;28;20036;-77
2022/01/26 06:20:10;;;;;;;69.25;28.40;;;;;;;3.50;85.50;101406.59;5075956;28;20040;-76
2022/01/26 06:23:10;;;;;;;69.20;28.25;;;;;;;3.47;85.47;101386.44;5051873;28;20040;-77
2022/01/26 06:26:18;;;;;;;74.30;29.02;;;;;;;3.43;85.03;101384.81;5064386;28;20044;-77
2022/01/26 06:29:29;;;;;;;;;;;;;;;;;;;;;
2022/01/26 06:32:15;;;;;;;70.40;27.60;;;;;;;3.39;85.18;101350.63;5087621;28;20107;-76
2022/01/26 06:34:55;;;;;;;79.00;29.52;;;;;;;3.31;84.81;101358.84;5073525;28;20063;-77
2022/01/26 06:37:35;;;;;;;81.20;31.20;;;;;;;3.34;85.34;101364.00;5053933;28;20040;-76
2022/01/26 06:40:27;;;;;;;;;;;;;;;;;;;;;
2022/01/26 06:43:52;;;;;;;80.10;30.05;;;;;;;3.36;85.13;101375.41;5075578;28;20104;-76
2022/01/26 06:53:23;;;;;;;77.32;28.88;;;;;;;3.39;84.54;101369.13;5032553;28;20062;-76
2022/01/26 06:59:24;;;;;;;79.47;30.05;;;;;;;3.41;84.54;101370.78;5076802;28;20039;-77
2022/01/26 07:01:58;;;;;;;78.03;28.60;;;;;;;3.39;84.68;101385.84;5072968;28;20101;-77
2022/01/26 07:04:44;;;;;;;76.13;28.75;;;;;;;3.42;84.13;101392.81;5058464;28;20025;-78
2022/01/26 07:07:44;;;;;;;83.13;30.48;;;;;;;3.47;84.85;101388.22;5070831;28;20028;-76
2022/01/26 07:10:37;;;;;;;81.15;28.70;;;;;;;3.50;84.32;101408.38;5057905;28;20767;-76
2022/01/26 07:13:45;;;;;;;79.18;31.02;;;;;;;3.50;84.42;101400.44;5076199;28;20032;-76
2022/01/26 07:20:20;;;;;;;77.38;30.70;;;;;;;3.35;83.80;101384.25;5091739;28;20090;-76
2022/01/26 07:23:18;;;;;;;;;;;;;;;;;;;;;
2022/01/26 07:26:11;;;;;;;80.82;30.27;;;;;;;3.37;84.48;101373.63;5076047;28;20087;-77
2022/01/26 07:29:22;;;;;;;77.78;30.08;;;;;;;3.32;84.23;101372.94;5067217;28;20036;-76
2022/01/26 07:32:26;;;;;;;79.53;28.77;;;;;;;3.27;84.16;101356.34;5057236;28;20047;-77
2022/01/26 07:35:04;;;;;;;78.93;28.17;;;;;;;3.24;84.65;101373.19;5057075;28;20040;-77
2022/01/26 07:38:08;;;;;;;79.20;30.08;;;;;;;3.26;84.32;101363.41;5055388;28;20044;-76
2022/01/26 07:41:09;;;;;;;82.00;29.67;;;;;;;3.28;84.62;101380.06;5066528;28;20052;-76
2022/01/26 07:43:56;;;;;;;80.35;30.40;;;;;;;3.30;84.78;101378.22;5069202;28;20032;-77
2022/01/26 07:46:38;;;;;;;79.15;29.83;;;;;;;3.29;84.89;101381.78;5063649;28;20032;-77
2022/01/26 07:49:34;;;;;;;78.82;29.52;;;;;;;3.31;85.08;101384.38;5049734;28;20925;-77
2022/01/26 07:52:29;;;;;;;78.53;27.70;;;;;;;3.33;85.38;101396.66;5068479;28;20448;-76
2022/01/26 07:55:17;;;;;;;79.03;29.10;;;;;;;3.33;84.78;101391.38;5072947;28;20051;-76
2022/01/26 07:58:08;;;;;;;80.60;27.65;;;;;;;3.30;84.86;101393.22;5055942;28;20578;-76
2022/01/26 08:00:53;;;;;;;81.38;28.85;;;;;;;3.33;84.98;101385.22;5054531;28;20044;-76
2022/01/26 08:06:50;;;;;;;75.55;27.45;;;;;;;3.30;85.24;101367.66;5074724;28;20038;-77
2022/01/26 08:09:54;;;;;;;;;;;;;;;;;;;;;
2022/01/26 08:12:49;;;;;;;78.20;27.90;;;;;;;3.29;85.30;101389.72;5075501;28;20100;-76
2022/01/26 08:15:59;;;;;;;;;;;;;;;;;;;;;
2022/01/26 08:18:45;;;;;;;72.53;26.40;;;;;;;3.34;85.62;101386.94;5085884;28;21049;-77
2022/01/26 08:21:22;;;;;;;74.10;26.67;;;;;;;3.33;85.67;101364.06;5057726;28;20076;-77
2022/01/26 08:24:36;;;;;;;70.07;25.67;;;;;;;3.32;85.50;101360.56;5056057;28;20040;-77
2022/01/26 08:30:35;;;;;;;74.40;25.20;;;;;;;3.36;85.36;101391.25;5076658;28;20169;-77
2022/01/26 08:33:44;;;;;;;72.65;25.92;;;;;;;3.31;85.33;101374.72;5085852;28;20120;-77
2022/01/26 08:36:28;;;;;;;;;;;;;;;;;;;;;
2022/01/26 08:39:32;;;;;;;;;;;;;;;;;;;;;
2022/01/26 08:45:38;;;;;;;69.97;24.08;;;;;;;3.35;85.69;101409.81;5067558;28;20898;-77
2022/01/26 08:48:26;;;;;;;70.00;24.88;;;;;;;3.41;85.71;101430.75;4993081;28;20105;-76
2022/01/26 08:51:19;;;;;;;65.03;24.15;;;;;;;3.38;85.57;101446.72;5002082;28;20554;-77
2022/01/26 08:54:06;;;;;;;67.28;23.85;;;;;;;3.41;85.96;101449.25;4978088;28;20534;-76
2022/01/26 08:56:42;;;;;;;61.85;22.85;;;;;;;3.43;86.05;101444.75;4973619;28;20112;-78
2022/01/26 08:59:42;;;;;;;;;;;;;;;;;;;;;
2022/01/26 09:02:16;;;;;;;60.15;21.77;;;;;;;3.51;85.78;101458.56;5053849;28;20460;-77
2022/01/26 09:05:09;;;;;;;;;;;;;;;;;;;;;
2022/01/26 09:07:57;;;;;;;62.95;22.88;;;;;;;3.44;85.65;101460.56;5048484;28;20104;-77
2022/01/26 09:10:37;;;;;;;65.07;23.65;;;;;;;3.38;85.64;101449.38;5038894;28;20048;-76
2022/01/26 09:13:35;;;;;;;60.20;20.98;;;;;;;3.38;85.68;101439.66;5044296;28;20044;-77
2022/01/26 09:16:29;;;;;;;56.00;20.85;;;;;;;3.40;85.80;101435.16;5038763;28;20047;-77
2022/01/26 09:19:36;;;;;;;;;;;;;;;;;;;;;
2022/01/26 09:23:03;;;;;;;61.03;22.25;;;;;;;3.34;86.21;101453.03;5036845;28;20147;-77
2022/01/26 09:25:52;;;;;;;52.90;20.55;;;;;;;3.34;86.01;101459.19;5051469;28;21142;-77
2022/01/26 09:28:28;;;;;;;54.70;20.52;;;;;;;3.31;86.23;101464.59;5035271;28;20410;-77
2022/01/26 09:31:25;;;;;;;50.28;19.90;;;;;;;3.33;86.35;101456.59;5020216;28;20090;-76
2022/01/26 09:34:07;;;;;;;49.88;19.15;;;;;;;3.38;86.46;101465.22;5004086;28;20044;-76
2022/01/26 09:37:02;;;;;;;48.30;19.35;;;;;;;3.37;86.21;101464.38;4985583;28;20038;-76
2022/01/26 09:39:46;;;;;;;53.03;19.60;;;;;;;3.39;86.05;101465.16;5008152;28;21047;-76
2022/01/26 09:42:35;;;;;;;;;;;;;;;;;;;;;
2022/01/26 09:45:19;;;;;;;48.33;19.45;;;;;;;3.37;86.37;101456.44;5016232;28;20125;-76
2022/01/26 09:48:23;;;;;;;45.42;18.48;;;;;;;3.41;86.47;101463.34;4996262;28;20674;-77
2022/01/26 09:51:10;;;;;;;50.40;20.75;;;;;;;3.40;86.02;101458.97;4997276;28;20527;-77
2022/01/26 09:54:32;;;;;;;51.88;19.65;;;;;;;3.35;86.25;101457.41;4987702;28;20078;-77
2022/01/26 09:57:13;;;;;;;48.90;18.55;;;;;;;3.38;86.65;101458.16;5003619;28;20048;-76
2022/01/26 10:00:09;;;;;;;50.10;20.40;;;;;;;3.37;86.75;101456.44;4987721;28;20044;-76
2022/01/26 10:03:05;;;;;;;46.13;18.98;;;;;;;3.43;86.64;101458.84;5045054;28;20036;-76
2022/01/26 10:18:26;;;;;;;44.28;18.40;;;;;;;3.46;86.76;101473.75;4994808;28;20069;-77
2022/01/26 10:28:09;;;;;;;46.70;19.75;;;;;;;3.49;86.89;101463.06;5058904;28;20054;-78
2022/01/26 10:31:11;;;;;;;;;;;;;;;;;;;;;
2022/01/26 10:34:07;;;;;;;42.30;18.27;;;;;;;3.50;87.02;101456.84;5028013;28;20128;-76
2022/01/26 10:37:00;;;;;;;44.15;19.05;;;;;;;3.51;87.01;101449.78;5037404;28;20044;-76
2022/01/26 10:39:50;;;;;;;41.15;18.83;;;;;;;3.53;87.07;101442.66;5038180;28;20032;-77
2022/01/26 10:42:58;;;;;;;44.78;18.42;;;;;;;3.51;86.84;101449.78;5032887;28;20029;-77
2022/01/26 10:46:19;;;;;;;;;;;;;;;;;;;;;
2022/01/26 10:52:54;;;;;;;38.70;17.95;;;;;;;3.56;87.28;101430.16;4979978;28;20133;-77
2022/01/26 10:55:47;;;;;;;42.28;18.08;;;;;;;3.54;87.44;101423.22;5048249;28;20519;-77
2022/01/26 10:58:30;;;;;;;41.22;17.83;;;;;;;3.50;87.32;101419.81;5038931;28;20498;-77
2022/01/26 11:01:24;;;;;;;;;;;;;;;;;;;;;
2022/01/26 11:04:32;;;;;;;44.15;19.30;;;;;;;3.45;87.46;101414.72;5038102;28;20139;-78
2022/01/26 11:07:16;;;;;;;39.58;18.65;;;;;;;3.49;87.51;101407.53;5044229;28;20057;-76
2022/01/26 11:10:23;;;;;;;39.90;18.05;;;;;;;3.50;87.39;101403.09;5031599;28;20495;-76
2022/01/26 11:13:00;;;;;;;41.70;18.33;;;;;;;3.48;87.52;101406.66;5034285;28;20036;-77
2022/01/26 11:15:38;;;;;;;41.42;19.60;;;;;;;3.50;87.20;101409.25;5045671;28;20490;-77
2022/01/26 11:18:46;;;;;;;40.00;18.88;;;;;;;3.53;87.46;101421.50;5035280;28;20049;-78
2022/01/26 11:31:33;;;;;;;42.35;20.38;;;;;;;3.51;87.54;101441.84;5029438;28;20033;-77
2022/01/26 11:47:56;;;;;;;46.55;21.02;;;;;;;3.52;87.70;101433.00;5055897;28;20035;-77
2022/01/26 11:50:53;;;;;;;44.08;20.25;;;;;;;3.55;87.46;101435.53;5045168;28;20089;-76
2022/01/26 12:00:47;;;;;;;47.72;19.88;;;;;;;3.51;87.52;101460.34;5038859;28;20491;-77
2022/01/26 12:07:21;;;;;;;45.95;19.10;;;;;;;3.41;88.10;101433.38;5076165;28;20023;-77
2022/01/26 12:10:08;;;;;;;;;;;;;;;;;;;;;
2022/01/26 12:13:22;;;;;;;45.58;19.10;;;;;;;3.56;87.85;101447.81;5073962;28;20107;-78
2022/01/26 12:16:22;;;;;;;47.72;19.95;;;;;;;3.59;87.53;101434.47;5087385;28;20036;-76
2022/01/26 12:44:13;;;;;;;45.05;19.65;;;;;;;3.66;87.31;101401.59;5071879;28;20028;-77
2022/01/26 12:47:13;;;;;;;44.25;19.65;;;;;;;3.63;87.21;101402.56;5066728;28;20059;-77
2022/01/26 12:50:06;;;;;;;49.78;19.40;;;;;;;3.64;87.36;101395.50;5030820;28;20039;-76
2022/01/26 12:52:41;;;;;;;47.42;20.23;;;;;;;3.67;87.24;101387.44;5032491;28;20044;-76
2022/01/26 12:55:47;;;;;;;46.55;20.73;;;;;;;3.62;87.65;101398.19;5014784;28;20128;-77
2022/01/26 12:58:34;;;;;;;48.78;20.00;;;;;;;3.59;87.59;101394.81;5028368;28;20033;-75
2022/01/26 13:01:28;;;;;;;45.80;20.05;;;;;;;3.60;87.39;101397.41;5031601;28;20041;-77
2022/01/26 13:04:25;;;;;;;46.13;20.58;;;;;;;3.60;87.64;101386.81;5036373;28;20076;-77
2022/01/26 13:07:12;;;;;;;46.33;19.17;;;;;;;3.63;87.47;101388.47;5017437;28;20523;-76
2022/01/26 13:09:56;;;;;;;46.80;19.95;;;;;;;3.60;87.32;101394.75;5019273;28;20043;-76
2022/01/26 13:12:42;;;;;;;47.35;19.85;;;;;;;3.64;87.29;101393.72;5020141;28;20045;-77
2022/01/26 13:22:33;;;;;;;47.60;19.50;;;;;;;3.64;87.36;101401.66;5092508;28;20038;-76
2022/01/26 13:38:01;;;;;;;50.08;20.30;;;;;;;3.52;87.20;101406.53;5076322;28;20029;-77
2022/01/26 13:49:54;;;;;;;51.05;21.10;;;;;;;3.52;87.22;101396.81;5026140;28;20037;-78
2022/01/26 14:02:03;;;;;;;;;;;;;;;3.63;87.29;101384.06;5077761;28;20566;-77
2022/01/26 14:04:34;;;;;;;47.75;20.48;;;;;;;3.63;87.16;101377.91;5077353;28;19916;-77
2022/01/26 14:08:06;;;;;;;50.60;22.30;;;;;;;3.61;87.17;101388.53;5013054;28;20025;-76
2022/01/26 14:10:55;;;;;;;52.00;21.25;;;;;;;3.65;87.08;101368.13;5074661;28;20126;-77
2022/01/26 14:13:39;;;;;;;50.17;22.63;;;;;;;3.58;86.64;101358.72;5057792;28;20058;-77
2022/01/26 14:16:40;;;;;;;49.72;22.00;;;;;;;3.56;86.58;101364.06;5057629;28;20050;-76
2022/01/26 14:25:56;;;;;;;49.77;21.07;;;;;;;3.56;86.35;101355.25;5088409;28;20027;-77
2022/01/26 14:50:56;;;;;;;47.85;20.77;;;;;;;3.57;86.64;101323.47;5078080;28;20684;-76
2022/01/26 15:34:21;;;;;;;44.13;21.38;;;;;;;3.42;86.57;101356.66;5077351;28;20066;-77
2022/01/26 15:40:09;;;;;;;43.28;20.17;;;;;;;3.42;86.75;101340.78;5076939;28;20035;-76
2022/01/26 15:57:54;;;;;;;36.72;18.23;;;;;;;3.57;86.69;101347.28;5057577;28;20067;-76
2022/01/26 17:24:49;;;;;;;36.88;16.15;;;;;;;3.40;86.83;101332.06;5062988;28;20139;-76
2022/01/26 18:06:48;;;;;;;34.60;15.48;;;;;;;3.55;86.00;101317.38;5077467;28;20031;-76
2022/01/26 18:17:45;;;;;;;32.28;15.27;;;;;;;3.45;85.93;101330.09;5070639;28;20063;-76
2022/01/26 18:32:41;;;;;;;34.95;15.70;;;;;;;3.42;85.65;101316.13;5079227;28;20034;-75
2022/01/26 18:49:12;;;;;;;34.47;15.85;;;;;;;3.38;85.59;101281.03;5079246;28;20055;-76
2022/01/26 18:50:21;;;;;;;32.30;14.85;;;;;;;3.33;85.68;101277.69;5085359;28;20439;-76
2022/01/26 18:53:15;;;;;;;36.40;15.75;;;;;;;3.41;85.70;101275.63;5074211;28;20861;-76
2022/01/26 18:55:56;;;;;;;34.42;14.40;;;;;;;3.37;85.41;101273.16;5059791;28;20076;-76
2022/01/26 18:58:30;;;;;;;37.05;14.77;;;;;;;3.39;85.50;101274.81;5074448;28;20036;-75
2022/01/26 19:01:35;;;;;;;38.75;16.02;;;;;;;3.37;85.28;101271.38;5055483;28;20041;-76
2022/01/26 19:04:10;;;;;;;33.63;16.08;;;;;;;3.41;85.39;101265.03;5060320;28;20024;-75
2022/01/26 19:06:52;;;;;;;39.42;16.52;;;;;;;3.34;85.43;101268.84;5056559;28;20039;-76
2022/01/26 19:09:31;;;;;;;38.60;16.40;;;;;;;3.37;85.46;101254.66;5056774;28;20058;-76
2022/01/26 19:15:01;;;;;;;37.22;15.40;;;;;;;3.37;85.52;101250.22;5062531;28;19912;-75
2022/01/26 19:17:40;;;;;;;35.90;15.18;;;;;;;3.37;85.35;101257.28;5057834;28;20036;-76
2022/01/26 19:26:03;;;;;;;35.40;15.43;;;;;;;3.32;85.27;101254.84;5076672;28;20043;-76
2022/01/26 19:29:03;;;;;;;35.15;14.73;;;;;;;3.31;85.78;101258.41;5071386;28;20198;-76
2022/01/26 19:54:42;;;;;;;;;;;;;;;;;;;;;
2022/01/26 19:57:16;;;;;;;38.42;14.93;;;;;;;3.37;85.85;101252.00;5076412;28;20119;-77
2022/01/26 19:59:50;;;;;;;36.45;16.13;;;;;;;3.35;85.94;101241.50;5056819;28;20579;-76
2022/01/26 20:02:30;;;;;;;40.28;15.98;;;;;;;3.38;85.88;101246.66;5057095;28;20027;-76
2022/01/26 20:05:17;;;;;;;34.33;15.30;;;;;;;3.34;85.73;101238.91;5054386;28;20423;-76
2022/01/26 20:08:07;;;;;;;44.03;18.55;;;;;;;3.44;85.91;101242.91;5051611;28;20396;-77
2022/01/26 20:10:55;;;;;;;37.95;16.30;;;;;;;3.44;85.87;101243.78;5066413;28;20048;-77
2022/01/26 20:13:53;;;;;;;;;;;;;;;;;;;;;
2022/01/26 20:16:49;;;;;;;43.20;16.83;;;;;;;3.43;85.76;101235.91;5074384;28;20122;-77
2022/01/26 20:19:19;;;;;;;37.70;16.52;;;;;;;3.41;85.48;101243.03;5073409;28;20040;-77
2022/01/26 20:21:53;;;;;;;34.50;15.43;;;;;;;3.40;85.72;101234.25;5056759;28;20032;-75
2022/01/26 20:24:29;;;;;;;41.25;16.95;;;;;;;3.43;85.59;101230.63;5057442;28;20040;-76
2022/01/26 20:27:18;;;;;;;42.72;16.45;;;;;;;3.39;85.79;101226.38;5053737;28;20104;-76
2022/01/26 20:30:02;;;;;;;41.78;17.33;;;;;;;3.36;85.97;101224.72;5072536;28;20029;-76
2022/01/26 20:32:46;;;;;;;37.58;16.35;;;;;;;3.36;85.98;101237.06;5072142;28;20032;-76
2022/01/26 20:35:25;;;;;;;37.63;16.38;;;;;;;3.35;85.96;101232.69;5058793;28;20063;-76
2022/01/26 20:37:58;;;;;;;37.60;16.30;;;;;;;3.38;85.94;101233.44;5057188;28;20037;-76
2022/01/26 20:40:37;;;;;;;39.35;16.75;;;;;;;3.35;86.01;101232.69;5056559;28;20529;-77
2022/01/26 20:43:21;;;;;;;;;;;;;;;3.36;86.15;101223.84;5056986;28;20040;-76
2022/01/26 20:46:04;;;;;;;40.38;16.58;;;;;;;3.35;85.81;101241.50;5064549;28;19919;-76
2022/01/26 20:48:36;;;;;;;41.17;17.08;;;;;;;3.35;85.80;101240.63;5057494;28;20063;-76
2022/01/26 20:51:16;;;;;;;39.70;16.15;;;;;;;3.37;85.87;101239.66;5058438;28;20044;-75
2022/01/26 20:53:50;;;;;;;37.50;17.42;;;;;;;3.37;85.76;101239.66;5057298;28;20035;-75
2022/01/26 20:56:25;;;;;;;41.80;17.25;;;;;;;3.36;86.05;101230.00;5054363;28;20036;-76
2022/01/26 20:59:13;;;;;;;34.22;15.75;;;;;;;3.33;86.11;101222.19;5054325;28;20502;-75
2022/01/26 21:01:55;;;;;;;38.67;17.87;;;;;;;3.32;85.58;101222.25;5057887;28;20915;-76
2022/01/26 21:04:27;;;;;;;34.50;16.38;;;;;;;3.34;86.12;101229.19;5057038;28;20663;-75
2022/01/26 21:07:05;;;;;;;35.38;17.25;;;;;;;3.36;85.76;101223.84;5056685;28;20028;-77
2022/01/26 21:09:40;;;;;;;36.30;15.75;;;;;;;3.38;85.93;101220.22;5057553;28;20053;-77
2022/01/26 21:12:20;;;;;;;34.58;16.40;;;;;;;3.38;85.50;101220.22;5053125;28;20047;-76
2022/01/26 21:14:57;;;;;;;36.72;16.73;;;;;;;3.38;85.48;101207.00;5072528;28;20028;-75
2022/01/26 21:17:38;;;;;;;35.78;16.15;;;;;;;3.38;85.49;101211.44;5056157;28;20074;-76
2022/01/26 21:20:13;;;;;;;35.08;16.13;;;;;;;3.34;85.55;101215.97;5072574;28;20051;-76
2022/01/26 21:22:47;;;;;;;33.83;16.15;;;;;;;3.34;85.76;101207.19;5056336;28;20042;-77
2022/01/26 21:25:35;;;;;;;37.40;16.27;;;;;;;3.35;85.70;101196.56;5058993;28;20036;-75
2022/01/26 21:28:11;;;;;;;31.77;14.88;;;;;;;3.35;85.58;101200.97;5062258;28;20036;-76
2022/01/26 21:30:44;;;;;;;35.97;16.52;;;;;;;3.42;85.52;101202.44;5060648;28;20048;-75
2022/01/26 21:33:21;;;;;;;31.65;16.02;;;;;;;3.38;85.63;101191.13;5061425;28;20028;-77
2022/01/26 21:36:08;;;;;;;32.35;16.05;;;;;;;3.43;85.63;101186.53;5061105;28;20033;-76
2022/01/26 21:41:40;;;;;;;36.40;15.90;;;;;;;3.39;85.48;101163.78;5086015;28;20039;-76
2022/01/26 21:44:09;;;;;;;33.75;16.98;;;;;;;3.36;85.38;101157.75;5059161;28;20047;-77
2022/01/26 21:46:48;;;;;;;34.13;16.52;;;;;;;3.34;85.26;101154.31;5058218;28;20032;-76
2022/01/26 21:49:21;;;;;;;34.17;17.13;;;;;;;3.37;85.60;101147.13;5077015;28;20035;-76
2022/01/26 21:54:53;;;;;;;31.23;16.70;;;;;;;3.39;85.54;101133.84;5091662;28;20051;-77
2022/01/26 21:57:30;;;;;;;32.28;16.33;;;;;;;3.53;85.74;101143.84;5058751;28;20047;-77
2022/01/26 22:00:16;;;;;;;35.90;18.75;;;;;;;3.44;84.99;101138.00;5058233;28;20036;-76
2022/01/26 22:02:55;;;;;;;35.72;17.80;;;;;;;3.38;85.28;101129.47;5059347;28;20394;-76
2022/01/26 22:05:51;;;;;;;31.13;16.45;;;;;;;3.40;85.26;101117.91;5062434;28;20033;-76
2022/01/26 22:08:24;;;;;;;33.05;17.60;;;;;;;3.42;85.28;101128.44;5058704;28;20055;-75
2022/01/26 22:11:04;;;;;;;32.38;16.85;;;;;;;3.40;85.38;101131.13;5059582;28;20032;-76
2022/01/26 22:13:44;;;;;;;33.40;16.83;;;;;;;3.42;85.47;101125.78;5058074;28;20036;-76
2022/01/26 22:16:14;;;;;;;34.72;17.42;;;;;;;3.43;84.94;101123.06;5059429;28;20046;-76
2022/01/26 22:19:13;;;;;;;30.55;16.45;;;;;;;3.41;85.00;101127.56;5059942;28;20467;-75
2022/01/26 22:21:50;;;;;;;36.05;17.13;;;;;;;3.42;84.85;101124.00;5059186;28;20936;-76
2022/01/26 22:24:24;;;;;;;32.45;17.27;;;;;;;3.43;85.15;101133.66;5059088;28;20046;-76
2022/01/26 22:27:05;;;;;;;31.73;17.38;;;;;;;3.41;85.10;101130.22;5058152;28;20037;-75
2022/01/26 22:29:36;;;;;;;32.83;17.38;;;;;;;3.40;85.03;101131.13;5060007;28;20112;-76